Time;durP1;ratioP1;P1;durP2;ratioP2;P2;SDS_P1;SDS_P2;PMS_P1;PMS_P2;Temp;Humidity;BMP_temperature;BMP_pressure;BME280_temperature;BME280_humidity;BME280_pressure;Samples;Min_cycle;Max_cycle;Signal;HPM_P1;HPM_P2
2022/08/26 00:01:01;;;;;;;24.80;11.27;;;21.80;99.90;;;;;;2603546;54;20076;31
2022/08/26 00:03:35;;;;;;;24.20;10.95;;;21.80;99.90;;;;;;2622068;46;20059;31
2022/08/26 00:06:11;;;;;;;17.50;9.70;;;21.70;99.90;;;;;;2603417;54;20957;31
2022/08/26 00:08:46;;;;;;;16.23;8.13;;;21.70;99.90;;;;;;2720750;39;20761;31
2022/08/26 00:11:20;;;;;;;10.20;7.60;;;21.60;99.90;;;;;;2603503;54;20083;31
2022/08/26 00:14:00;;;;;;;17.38;8.77;;;21.60;99.90;;;;;;2603593;54;20807;31
2022/08/26 00:16:36;;;;;;;19.45;8.23;;;21.60;99.90;;;;;;2603372;54;20959;31
2022/08/26 00:19:21;;;;;;;10.63;7.57;;;21.50;99.90;;;;;;2603458;54;20802;31
2022/08/26 00:21:56;;;;;;;13.35;7.43;;;21.50;99.90;;;;;;2603608;54;20054;31
2022/08/26 00:24:30;;;;;;;13.35;6.35;;;21.50;99.90;;;;;;2702141;39;20430;31
2022/08/26 00:27:04;;;;;;;21.93;8.30;;;21.40;99.90;;;;;;2603438;54;20030;31
2022/08/26 00:29:39;;;;;;;13.30;7.53;;;21.40;99.90;;;;;;2621645;46;20027;31
2022/08/26 00:32:16;;;;;;;20.55;8.80;;;21.40;99.90;;;;;;2603381;54;20868;31
2022/08/26 00:34:51;;;;;;;23.05;11.32;;;21.40;99.90;;;;;;2621854;46;21244;31
2022/08/26 00:37:26;;;;;;;17.87;11.60;;;21.40;99.90;;;;;;2603413;54;20030;31
2022/08/26 00:40:01;;;;;;;19.80;8.60;;;21.30;99.90;;;;;;2621743;46;20892;31
2022/08/26 00:42:38;;;;;;;26.30;9.60;;;21.30;99.90;;;;;;2603514;54;20081;31
2022/08/26 00:45:18;;;;;;;23.63;9.38;;;21.30;99.90;;;;;;2603399;54;20035;31
2022/08/26 00:47:57;;;;;;;;;;;21.20;99.90;;;;;;2603399;54;20716;31
2022/08/26 00:50:33;;;;;;;18.50;8.35;;;21.20;99.90;;;;;;2603586;54;19957;31
2022/08/26 00:53:20;;;;;;;14.70;6.67;;;21.20;99.90;;;;;;2603535;54;20113;31
2022/08/26 00:56:01;;;;;;;15.02;6.93;;;21.20;99.90;;;;;;2622167;46;20929;31
2022/08/26 00:58:36;;;;;;;14.15;7.07;;;21.10;99.90;;;;;;2622032;46;20921;31
2022/08/26 01:01:13;;;;;;;15.73;8.18;;;21.10;99.90;;;;;;2603317;54;20137;31
2022/08/26 01:03:50;;;;;;;13.48;8.40;;;21.00;99.90;;;;;;2603362;54;20033;31
2022/08/26 01:06:26;;;;;;;15.55;8.80;;;21.00;99.90;;;;;;2603394;54;20023;31
2022/08/26 01:09:00;;;;;;;12.13;7.35;;;21.00;99.90;;;;;;2603310;54;20088;31
2022/08/26 01:11:35;;;;;;;15.70;8.00;;;20.90;99.90;;;;;;2603316;54;20109;31
2022/08/26 01:14:10;;;;;;;16.83;8.30;;;20.90;99.90;;;;;;2603272;54;20173;31
2022/08/26 01:16:44;;;;;;;22.90;8.50;;;20.80;99.90;;;;;;2720476;39;20516;31
2022/08/26 01:19:23;;;;;;;14.67;6.90;;;20.80;99.90;;;;;;2701983;39;20481;31
2022/08/26 01:21:59;;;;;;;18.57;6.80;;;20.70;99.90;;;;;;2621867;46;20026;31
2022/08/26 01:24:36;;;;;;;15.75;9.95;;;20.70;99.90;;;;;;2603276;54;20047;31
2022/08/26 01:27:11;;;;;;;14.95;8.15;;;20.70;99.90;;;;;;2621413;46;20037;31
2022/08/26 01:29:45;;;;;;;;;;;20.80;99.90;;;;;;2603524;54;20026;31
2022/08/26 01:32:23;;;;;;;13.23;8.13;;;20.70;99.90;;;;;;2603615;54;19989;31
2022/08/26 01:34:57;;;;;;;19.50;9.23;;;20.60;99.90;;;;;;2603179;54;20890;31
2022/08/26 01:37:34;;;;;;;18.13;8.68;;;20.60;99.90;;;;;;2603319;54;20079;31
2022/08/26 01:40:15;;;;;;;14.05;8.70;;;20.60;99.90;;;;;;2603503;54;20030;31
2022/08/26 01:42:50;;;;;;;12.52;8.20;;;20.60;99.90;;;;;;2603221;54;20077;31
2022/08/26 01:45:25;;;;;;;12.50;7.00;;;20.60;99.90;;;;;;2603233;54;20034;31
2022/08/26 01:48:00;;;;;;;12.80;7.93;;;20.50;99.90;;;;;;2621806;46;20027;31
2022/08/26 01:50:36;;;;;;;15.73;9.63;;;20.50;99.90;;;;;;2603425;54;20026;31
2022/08/26 01:53:10;;;;;;;16.77;8.30;;;20.50;99.90;;;;;;2603207;54;20070;31
2022/08/26 01:55:49;;;;;;;13.05;7.93;;;20.50;99.90;;;;;;2603355;54;20045;31
2022/08/26 01:58:24;;;;;;;11.20;7.40;;;20.40;99.90;;;;;;2621744;46;20530;31
2022/08/26 02:00:59;;;;;;;9.90;7.40;;;20.40;99.90;;;;;;2603084;54;20022;31
2022/08/26 02:03:36;;;;;;;17.63;7.78;;;20.40;99.90;;;;;;2603311;54;20682;31
2022/08/26 02:06:15;;;;;;;12.75;7.43;;;20.40;99.90;;;;;;2603120;54;20109;31
2022/08/26 02:08:51;;;;;;;13.05;7.35;;;20.30;99.90;;;;;;2603113;54;20902;31
2022/08/26 02:11:28;;;;;;;11.20;6.97;;;20.30;99.90;;;;;;2603129;54;20030;31
2022/08/26 02:14:06;;;;;;;12.85;7.63;;;20.30;99.90;;;;;;2603211;54;20031;31
2022/08/26 02:16:42;;;;;;;15.00;7.17;;;20.30;99.90;;;;;;2603231;54;20086;31
2022/08/26 02:19:18;;;;;;;12.32;9.18;;;20.20;99.90;;;;;;2621712;47;20089;31
2022/08/26 02:21:53;;;;;;;10.05;8.27;;;20.20;99.90;;;;;;2603190;54;20762;31
2022/08/26 02:24:29;;;;;;;10.07;5.88;;;20.10;99.90;;;;;;2603060;54;20031;31
2022/08/26 02:27:07;;;;;;;11.40;6.38;;;20.10;99.90;;;;;;2621749;47;20046;31
2022/08/26 02:29:43;;;;;;;14.85;6.65;;;20.10;99.90;;;;;;2602581;54;20023;31
2022/08/26 02:32:16;;;;;;;;;;;20.10;99.90;;;;;;2702045;39;20450;31
2022/08/26 02:34:52;;;;;;;13.45;6.88;;;20.10;99.90;;;;;;2621502;46;19935;31
2022/08/26 02:37:29;;;;;;;13.60;9.15;;;20.00;99.90;;;;;;2602996;54;20026;31
2022/08/26 02:40:04;;;;;;;12.15;8.70;;;20.00;99.90;;;;;;2702518;39;20503;31
2022/08/26 02:42:41;;;;;;;10.77;9.43;;;20.10;99.90;;;;;;2603471;54;20935;31
2022/08/26 02:45:16;;;;;;;13.13;8.30;;;20.00;99.90;;;;;;2603971;54;21426;31
2022/08/26 02:47:57;;;;;;;14.20;8.30;;;20.00;99.90;;;;;;2773756;31;20735;31
2022/08/26 02:50:33;;;;;;;12.90;7.77;;;20.00;99.90;;;;;;2603722;54;20074;31
2022/08/26 02:53:09;;;;;;;11.93;6.93;;;20.00;99.90;;;;;;2603807;54;20837;31
2022/08/26 02:55:48;;;;;;;17.40;8.80;;;20.00;99.90;;;;;;2603954;54;20038;31
2022/08/26 02:58:25;;;;;;;11.60;7.07;;;19.90;99.90;;;;;;2603618;54;20037;31
2022/08/26 03:01:00;;;;;;;15.65;9.60;;;19.90;99.90;;;;;;2621979;46;20946;31
2022/08/26 03:03:37;;;;;;;11.35;7.25;;;20.00;99.90;;;;;;2603651;54;20913;31
2022/08/26 03:06:11;;;;;;;12.90;8.65;;;19.80;99.90;;;;;;2622538;46;20885;31
2022/08/26 03:08:49;;;;;;;15.95;9.20;;;19.90;99.90;;;;;;2603708;54;20023;31
2022/08/26 03:11:24;;;;;;;11.77;7.55;;;19.80;99.90;;;;;;2622487;46;20062;31
2022/08/26 03:14:08;;;;;;;13.50;7.93;;;19.90;99.90;;;;;;2603609;54;20026;31
2022/08/26 03:16:50;;;;;;;10.95;7.68;;;19.80;99.90;;;;;;2603753;54;20056;31
2022/08/26 03:19:22;;;;;;;17.27;8.98;;;19.80;99.90;;;;;;2603800;54;20089;31
2022/08/26 03:21:57;;;;;;;10.05;7.28;;;19.80;99.90;;;;;;2622160;46;20097;31
2022/08/26 03:24:32;;;;;;;10.63;7.40;;;19.80;99.90;;;;;;2622419;46;20089;31
2022/08/26 03:27:07;;;;;;;16.37;8.73;;;19.80;99.90;;;;;;2603561;54;20034;31
2022/08/26 03:32:30;;;;;;;12.75;8.05;;;19.80;99.90;;;;;;2603609;54;20978;31
2022/08/26 03:35:06;;;;;;;8.90;7.90;;;19.80;99.90;;;;;;2603750;54;20031;31
2022/08/26 03:37:41;;;;;;;;;;;19.70;99.90;;;;;;2603825;54;20042;31
2022/08/26 03:40:16;;;;;;;15.88;8.45;;;19.70;99.90;;;;;;2603677;54;20752;31
2022/08/26 03:42:53;;;;;;;11.80;7.60;;;19.60;99.90;;;;;;2603547;54;20050;31
2022/08/26 03:45:30;;;;;;;10.40;7.07;;;19.60;99.90;;;;;;2603850;54;20026;31
2022/08/26 03:48:06;;;;;;;10.80;7.28;;;19.60;99.90;;;;;;2621570;46;20835;31
2022/08/26 03:50:40;;;;;;;14.45;7.10;;;19.60;99.90;;;;;;2603536;54;21787;31
2022/08/26 03:53:15;;;;;;;10.15;5.90;;;19.60;99.90;;;;;;2603378;54;20038;31
2022/08/26 03:55:56;;;;;;;12.77;7.47;;;19.50;99.90;;;;;;2603717;54;20023;31
2022/08/26 03:58:29;;;;;;;13.13;7.93;;;19.50;99.90;;;;;;2622060;46;20034;31
2022/08/26 04:01:07;;;;;;;13.40;8.00;;;19.50;99.90;;;;;;2622173;46;20940;31
2022/08/26 04:06:30;;;;;;;13.07;8.65;;;19.50;99.90;;;;;;2603581;54;20050;31
2022/08/26 04:09:06;;;;;;;15.48;10.48;;;19.50;99.90;;;;;;2603506;54;20820;31
2022/08/26 04:11:44;;;;;;;14.98;10.30;;;19.50;99.90;;;;;;2621870;46;20039;31
2022/08/26 04:14:22;;;;;;;14.23;8.40;;;19.40;99.90;;;;;;2603132;54;20022;31
2022/08/26 04:17:00;;;;;;;12.13;8.70;;;19.50;99.90;;;;;;2603375;54;20752;31
2022/08/26 04:19:34;;;;;;;13.32;9.45;;;19.50;99.90;;;;;;2603465;54;20862;31
2022/08/26 04:22:09;;;;;;;10.80;8.55;;;19.50;99.90;;;;;;2603225;54;20034;31
2022/08/26 04:24:44;;;;;;;;;;;19.50;99.90;;;;;;2621776;46;20896;31
2022/08/26 04:27:19;;;;;;;9.43;7.80;;;19.60;99.90;;;;;;2621847;46;19934;31
2022/08/26 04:29:54;;;;;;;9.10;8.10;;;19.60;99.90;;;;;;2603648;54;20026;31
2022/08/26 04:32:31;;;;;;;13.07;8.10;;;19.60;99.90;;;;;;2621679;46;20936;31
2022/08/26 04:35:06;;;;;;;10.45;9.48;;;19.60;99.90;;;;;;2603393;54;20041;31
2022/08/26 04:37:42;;;;;;;12.35;9.50;;;19.60;99.90;;;;;;2621656;46;20896;31
2022/08/26 04:40:17;;;;;;;18.98;10.88;;;19.60;99.90;;;;;;2603336;54;20026;31
2022/08/26 04:42:52;;;;;;;10.30;9.30;;;19.70;99.90;;;;;;2603618;54;20089;31
2022/08/26 04:45:27;;;;;;;16.03;12.30;;;19.90;99.90;;;;;;2603386;54;20905;31
2022/08/26 04:48:05;;;;;;;16.83;10.47;;;19.90;99.90;;;;;;2603354;54;20581;31
2022/08/26 04:50:44;;;;;;;22.48;11.90;;;20.10;99.90;;;;;;2603680;54;20293;31
2022/08/26 04:53:22;;;;;;;12.98;11.63;;;20.20;99.90;;;;;;2622042;46;20032;31
2022/08/26 04:55:57;;;;;;;18.25;13.52;;;20.30;99.90;;;;;;2622049;46;20057;31
2022/08/26 04:58:32;;;;;;;20.25;13.60;;;20.40;99.90;;;;;;2603358;54;20034;31
2022/08/26 05:01:07;;;;;;;18.10;11.80;;;20.50;99.90;;;;;;2621642;46;20052;31
2022/08/26 05:03:45;;;;;;;16.50;11.07;;;20.60;99.90;;;;;;2621996;46;20306;31
2022/08/26 05:06:19;;;;;;;19.65;13.10;;;20.80;99.90;;;;;;2604566;46;20026;31
2022/08/26 05:08:55;;;;;;;17.58;10.95;;;20.90;99.90;;;;;;2621585;46;20790;31
2022/08/26 05:11:32;;;;;;;18.20;11.48;;;21.10;99.90;;;;;;2603371;54;20897;31
2022/08/26 05:14:06;;;;;;;14.45;10.90;;;21.20;99.90;;;;;;2621898;46;20098;31
2022/08/26 05:16:44;;;;;;;24.45;13.25;;;21.40;99.90;;;;;;2603522;54;20079;31
2022/08/26 05:19:23;;;;;;;18.60;12.15;;;21.40;99.90;;;;;;2603353;54;20030;31
2022/08/26 05:22:01;;;;;;;22.20;11.45;;;21.60;99.90;;;;;;2603212;54;20026;31
2022/08/26 05:24:35;;;;;;;17.63;11.33;;;21.70;99.90;;;;;;2603290;54;20030;31
2022/08/26 05:27:10;;;;;;;16.17;12.60;;;21.90;99.90;;;;;;2603151;54;20081;31
2022/08/26 05:29:47;;;;;;;18.90;12.75;;;22.00;99.90;;;;;;2603204;54;20052;31
2022/08/26 05:32:30;;;;;;;23.67;12.93;;;22.10;99.90;;;;;;2603221;54;19935;31
2022/08/26 05:35:10;;;;;;;17.70;12.18;;;22.10;99.90;;;;;;2603464;54;20026;31
2022/08/26 05:37:45;;;;;;;20.23;13.00;;;22.20;99.90;;;;;;2621801;46;20038;31
2022/08/26 05:40:21;;;;;;;15.60;11.88;;;22.30;99.90;;;;;;2603210;54;20050;31
2022/08/26 05:45:27;;;;;;;15.13;11.27;;;22.70;99.90;;;;;;2603160;54;20569;31
2022/08/26 05:48:05;;;;;;;19.88;12.15;;;22.90;99.90;;;;;;2603585;54;20754;31
2022/08/26 05:50:39;;;;;;;17.77;12.07;;;23.00;99.90;;;;;;2603376;54;20916;31
2022/08/26 05:53:20;;;;;;;30.02;12.75;;;23.20;99.90;;;;;;2621642;46;20842;31
2022/08/26 05:55:57;;;;;;;15.00;10.77;;;23.40;99.90;;;;;;2603320;54;20026;31
2022/08/26 05:58:32;;;;;;;17.67;11.47;;;23.60;99.90;;;;;;2603392;54;20039;31
2022/08/26 06:01:09;;;;;;;19.70;12.75;;;23.90;99.90;;;;;;2603124;54;20045;31
2022/08/26 06:03:46;;;;;;;20.05;11.43;;;24.00;99.90;;;;;;2621398;46;20038;31
2022/08/26 06:06:23;;;;;;;17.02;12.32;;;24.20;99.90;;;;;;2603008;54;20026;31
2022/08/26 06:09:09;;;;;;;20.50;11.75;;;24.40;99.90;;;;;;2603386;54;20026;31
2022/08/26 06:11:45;;;;;;;17.98;11.32;;;24.60;99.90;;;;;;2603302;54;20845;31
2022/08/26 06:14:22;;;;;;;20.35;11.18;;;24.80;99.90;;;;;;2701717;39;21018;31
2022/08/26 06:16:57;;;;;;;20.25;11.85;;;25.10;99.90;;;;;;2621280;46;20887;31
2022/08/26 06:19:32;;;;;;;21.50;12.90;;;25.30;99.90;;;;;;2603204;54;20775;31
2022/08/26 06:25:36;;;;;;;18.75;11.85;;;25.40;99.90;;;;;;2602998;54;20034;31
2022/08/26 06:28:04;;;;;;;23.83;12.20;;;25.80;99.90;;;;;;2603101;54;20844;31
2022/08/26 06:30:41;;;;;;;28.15;11.85;;;26.00;99.90;;;;;;2602547;54;20105;31
2022/08/26 06:33:16;;;;;;;17.17;10.70;;;26.10;99.90;;;;;;2621906;47;20035;31
2022/08/26 06:35:52;;;;;;;;;;;26.30;99.90;;;;;;2621881;47;20037;31
2022/08/26 06:38:27;;;;;;;25.45;11.80;;;26.50;99.90;;;;;;2602899;54;20006;31
2022/08/26 06:41:05;;;;;;;16.70;11.10;;;26.60;99.90;;;;;;2603229;54;20045;31
2022/08/26 06:43:40;;;;;;;19.13;11.43;;;26.70;99.90;;;;;;2719503;39;20503;31
2022/08/26 06:46:17;;;;;;;20.85;11.90;;;26.90;99.90;;;;;;2602920;54;20113;31
2022/08/26 06:48:52;;;;;;;15.90;10.80;;;26.90;99.90;;;;;;2602933;54;20085;31
2022/08/26 06:51:28;;;;;;;18.80;11.77;;;27.00;99.90;;;;;;2602934;54;20109;31
2022/08/26 06:54:03;;;;;;;15.40;10.40;;;27.20;99.90;;;;;;2621306;47;20030;31
2022/08/26 06:56:42;;;;;;;15.93;10.15;;;27.40;99.90;;;;;;2602922;54;20101;31
2022/08/26 06:59:17;;;;;;;18.13;10.83;;;27.70;99.90;;;;;;2603003;54;20027;31
2022/08/26 07:01:56;;;;;;;19.42;11.57;;;27.90;99.90;;;;;;2602866;54;20027;31
2022/08/26 07:04:37;;;;;;;21.10;10.13;;;27.90;99.90;;;;;;2602870;54;20832;31
2022/08/26 07:07:15;;;;;;;20.35;10.85;;;28.10;99.90;;;;;;2621548;47;20887;31
2022/08/26 07:09:50;;;;;;;15.80;11.40;;;28.20;99.90;;;;;;2602898;54;20026;31
2022/08/26 07:12:29;;;;;;;17.92;10.60;;;28.40;99.90;;;;;;2603013;54;20974;31
2022/08/26 07:15:04;;;;;;;19.42;10.13;;;28.60;99.90;;;;;;2602895;54;20664;31
2022/08/26 07:17:41;;;;;;;26.65;10.73;;;28.80;99.90;;;;;;2603193;54;20027;31
2022/08/26 07:20:16;;;;;;;18.83;9.57;;;29.00;99.90;;;;;;2602824;54;20038;31
2022/08/26 07:22:52;;;;;;;15.67;10.20;;;29.10;99.90;;;;;;2602889;54;20089;31
2022/08/26 07:25:27;;;;;;;14.20;10.02;;;29.30;99.90;;;;;;2603310;54;20031;31
2022/08/26 07:28:06;;;;;;;22.38;10.93;;;29.40;99.90;;;;;;2603813;54;20917;31
2022/08/26 07:30:44;;;;;;;17.63;10.73;;;29.50;99.90;;;;;;2603599;54;20037;31
2022/08/26 07:33:19;;;;;;;23.77;10.63;;;29.70;99.90;;;;;;2603725;54;20936;31
2022/08/26 07:35:54;;;;;;;17.45;9.70;;;29.80;99.90;;;;;;2622478;46;20079;31
2022/08/26 07:38:29;;;;;;;;;;;29.90;99.90;;;;;;2619851;46;20888;31
2022/08/26 07:41:07;;;;;;;20.77;12.18;;;30.10;99.90;;;;;;2603624;54;20828;31
2022/08/26 07:43:47;;;;;;;20.55;11.15;;;30.20;99.90;;;;;;2603633;54;20038;31
2022/08/26 07:46:21;;;;;;;13.68;9.65;;;30.30;99.90;;;;;;2603541;54;20855;31
2022/08/26 07:49:03;;;;;;;20.33;10.32;;;30.30;99.90;;;;;;2603996;54;20771;31
2022/08/26 07:51:39;;;;;;;;;;;30.30;99.90;;;;;;2604068;54;20837;31
2022/08/26 07:54:13;;;;;;;15.63;8.48;;;30.40;99.90;;;;;;2622020;46;19942;31
2022/08/26 07:56:48;;;;;;;24.95;10.05;;;30.50;99.90;;;;;;2603879;54;20030;31
2022/08/26 07:59:27;;;;;;;19.43;10.90;;;30.60;99.90;;;;;;2603492;54;20069;31
2022/08/26 08:02:05;;;;;;;20.07;9.27;;;30.80;99.90;;;;;;2603862;54;20101;31
2022/08/26 08:04:46;;;;;;;14.52;10.30;;;30.80;99.90;;;;;;2603724;54;20891;31
2022/08/26 08:07:23;;;;;;;14.90;9.10;;;31.00;99.90;;;;;;2621788;46;20074;31
2022/08/26 08:10:21;;;;;;;19.75;9.93;;;31.00;99.90;;;;;;2621892;46;20034;31
2022/08/26 08:12:59;;;;;;;15.25;9.43;;;31.20;99.90;;;;;;2603723;54;20034;31
2022/08/26 08:15:37;;;;;;;17.65;8.90;;;31.30;99.90;;;;;;2603706;54;20027;31
2022/08/26 08:18:22;;;;;;;21.85;9.65;;;31.30;99.90;;;;;;2603524;54;20050;31
2022/08/26 08:21:00;;;;;;;17.75;8.93;;;31.40;99.90;;;;;;2603430;54;20112;31
2022/08/26 08:24:00;;;;;;;15.75;9.15;;;31.50;99.90;;;;;;2603229;54;19942;31
2022/08/26 08:26:37;;;;;;;18.53;9.67;;;31.60;99.90;;;;;;2603681;54;20026;31
2022/08/26 08:29:14;;;;;;;14.88;9.27;;;31.70;99.90;;;;;;2603385;54;20030;31
2022/08/26 08:31:52;;;;;;;15.17;8.30;;;31.90;99.90;;;;;;2603512;54;20068;31
2022/08/26 08:40:06;;;;;;;17.05;9.05;;;32.20;99.90;;;;;;2607417;54;20026;31
2022/08/26 08:42:47;;;;;;;16.70;8.35;;;32.30;99.90;;;;;;2607606;54;20081;31
2022/08/26 08:45:29;;;;;;;12.85;8.38;;;32.40;99.90;;;;;;2607707;54;20033;31
2022/08/26 08:48:15;;;;;;;15.35;8.55;;;32.60;99.90;;;;;;2607174;54;20027;31
2022/08/26 08:50:55;;;;;;;16.23;8.10;;;32.70;99.90;;;;;;2607374;54;20105;31
2022/08/26 08:53:40;;;;;;;16.98;7.85;;;32.80;99.90;;;;;;2607357;54;20105;31
2022/08/26 08:56:22;;;;;;;12.25;7.72;;;32.90;99.90;;;;;;2607558;54;20022;31
2022/08/26 08:58:57;;;;;;;17.55;7.65;;;32.90;99.90;;;;;;2625853;46;20022;31
2022/08/26 09:01:44;;;;;;;19.07;7.70;;;32.80;99.90;;;;;;2607639;54;20088;31
2022/08/26 09:04:51;;;;;;;14.32;7.10;;;32.90;99.90;;;;;;2607406;54;21223;31
2022/08/26 09:07:28;;;;;;;23.70;9.27;;;33.00;99.90;;;;;;2607532;54;20065;31
2022/08/26 09:10:32;;;;;;;18.88;8.18;;;33.00;99.90;;;;;;2607308;54;20041;31
2022/08/26 09:15:51;;;;;;;16.10;8.00;;;33.10;99.90;;;;;;2607428;54;20026;31
2022/08/26 09:18:39;;;;;;;16.65;7.40;;;33.20;99.90;;;;;;2625358;46;21124;31
2022/08/26 09:21:17;;;;;;;11.17;6.27;;;33.30;99.90;;;;;;2607332;54;20026;31
2022/08/26 09:23:55;;;;;;;16.77;6.88;;;33.30;99.90;;;;;;2607314;54;20242;31
2022/08/26 09:26:45;;;;;;;17.08;6.28;;;33.50;99.90;;;;;;2625761;46;20853;31
2022/08/26 09:31:53;;;;;;;15.40;6.20;;;33.40;99.90;;;;;;2607510;54;20880;31
2022/08/26 09:34:30;;;;;;;11.25;6.03;;;33.30;99.90;;;;;;2607495;54;20033;31
2022/08/26 09:37:06;;;;;;;10.52;5.75;;;33.30;99.90;;;;;;2607458;54;20052;31
2022/08/26 09:39:47;;;;;;;11.13;5.90;;;33.20;99.90;;;;;;2607345;54;20104;31
2022/08/26 09:42:28;;;;;;;16.95;6.32;;;33.40;99.90;;;;;;2607328;54;20069;31
2022/08/26 09:45:11;;;;;;;16.02;5.80;;;33.50;99.90;;;;;;2607467;54;20033;31
2022/08/26 09:47:55;;;;;;;12.32;5.72;;;33.40;99.90;;;;;;2604836;54;20121;31
2022/08/26 09:50:35;;;;;;;16.27;5.82;;;33.50;99.90;;;;;;2603831;54;20888;31
2022/08/26 09:53:18;;;;;;;9.85;5.05;;;33.60;99.90;;;;;;2603478;54;20022;31
2022/08/26 09:55:56;;;;;;;11.63;5.00;;;33.50;98.70;;;;;;2603651;54;20026;31
2022/08/26 09:58:39;;;;;;;13.60;5.35;;;33.50;99.50;;;;;;2603766;54;20097;31
2022/08/26 10:01:17;;;;;;;10.13;5.00;;;33.30;98.80;;;;;;2622120;46;20030;31
2022/08/26 10:03:53;;;;;;;12.68;5.32;;;33.20;98.80;;;;;;2603765;54;20113;31
2022/08/26 10:06:33;;;;;;;10.75;5.20;;;33.10;99.20;;;;;;2603860;54;20085;31
2022/08/26 10:09:09;;;;;;;17.52;6.43;;;33.10;98.90;;;;;;2603762;54;20049;31
2022/08/26 10:11:48;;;;;;;22.10;5.70;;;33.10;99.00;;;;;;2603685;54;21051;31
2022/08/26 10:14:28;;;;;;;11.98;5.03;;;33.30;98.60;;;;;;2603531;54;20026;31
2022/08/26 10:17:03;;;;;;;10.55;5.45;;;33.40;98.10;;;;;;2621930;46;20879;31
2022/08/26 10:19:43;;;;;;;14.32;5.88;;;33.30;97.70;;;;;;2602933;54;20844;31
2022/08/26 10:22:35;;;;;;;10.80;4.75;;;33.20;97.90;;;;;;2603755;54;20027;31
2022/08/26 10:25:13;;;;;;;10.30;5.25;;;33.10;97.00;;;;;;2622198;46;20246;31
2022/08/26 10:27:49;;;;;;;12.30;5.65;;;33.20;97.60;;;;;;2603744;54;20026;31
2022/08/26 10:30:33;;;;;;;12.18;5.00;;;33.20;97.20;;;;;;2603667;54;20039;31
2022/08/26 10:33:11;;;;;;;8.70;4.60;;;33.10;96.90;;;;;;2621971;46;20841;31
2022/08/26 10:35:50;;;;;;;14.95;4.63;;;33.00;96.50;;;;;;2603755;54;20031;31
2022/08/26 10:38:29;;;;;;;9.60;5.20;;;33.00;97.20;;;;;;2603639;54;20062;31
2022/08/26 10:41:09;;;;;;;13.15;5.20;;;32.90;96.80;;;;;;2603452;54;20022;31
2022/08/26 10:43:49;;;;;;;9.85;5.18;;;32.90;96.80;;;;;;2622073;46;20030;31
2022/08/26 10:46:30;;;;;;;8.65;4.50;;;33.00;97.60;;;;;;2622036;46;20026;31
2022/08/26 10:49:10;;;;;;;13.80;4.90;;;32.90;95.60;;;;;;2603456;54;20977;31
2022/08/26 10:51:51;;;;;;;10.83;5.33;;;32.80;95.90;;;;;;2603454;54;20089;31
2022/08/26 10:54:33;;;;;;;11.25;5.22;;;32.70;94.80;;;;;;2603523;54;20289;31
2022/08/26 10:57:13;;;;;;;13.63;4.85;;;32.60;94.40;;;;;;2603280;54;20038;31
2022/08/26 10:59:53;;;;;;;13.93;4.30;;;32.50;95.20;;;;;;2622192;46;20857;31
2022/08/26 11:02:35;;;;;;;10.80;4.90;;;32.50;95.70;;;;;;2603741;54;20030;31
2022/08/26 11:05:17;;;;;;;10.32;4.15;;;32.60;96.60;;;;;;2603762;54;20100;31
2022/08/26 11:07:55;;;;;;;7.35;3.70;;;32.50;93.60;;;;;;2603510;54;20033;31
2022/08/26 11:11:07;;;;;;;10.90;3.88;;;32.50;92.20;;;;;;2603723;54;20899;31
2022/08/26 11:14:00;;;;;;;9.30;4.18;;;32.40;92.50;;;;;;2603115;54;20038;31
2022/08/26 11:16:38;;;;;;;12.63;4.15;;;32.40;92.30;;;;;;2603316;54;20089;31
2022/08/26 11:19:46;;;;;;;8.85;3.28;;;32.40;92.60;;;;;;2621840;46;20031;31
2022/08/26 11:22:36;;;;;;;7.80;3.70;;;32.30;92.20;;;;;;2603465;54;20085;31
2022/08/26 11:25:25;;;;;;;12.48;4.20;;;32.40;92.70;;;;;;2622285;46;20031;31
2022/08/26 11:28:08;;;;;;;8.82;4.22;;;32.30;92.60;;;;;;2603382;54;20030;31
2022/08/26 11:30:50;;;;;;;11.37;3.97;;;32.30;92.50;;;;;;2603383;54;20030;31
2022/08/26 11:37:01;;;;;;;10.13;3.92;;;32.20;91.40;;;;;;2603015;54;20833;31
2022/08/26 11:39:49;;;;;;;9.70;3.13;;;32.20;93.00;;;;;;2622127;46;20034;31
2022/08/26 11:42:34;;;;;;;10.23;3.73;;;32.20;91.70;;;;;;2603277;54;20030;31
2022/08/26 11:45:19;;;;;;;7.68;3.53;;;32.20;91.70;;;;;;2621647;46;20046;31
2022/08/26 11:47:54;;;;;;;9.80;3.10;;;32.10;90.70;;;;;;2603317;54;20889;31
2022/08/26 11:50:32;;;;;;;9.02;3.90;;;32.10;91.90;;;;;;2603320;54;20259;31
2022/08/26 11:53:07;;;;;;;12.55;3.58;;;32.20;91.80;;;;;;2621844;46;20888;31
2022/08/26 11:55:44;;;;;;;5.68;2.80;;;32.10;90.60;;;;;;2621868;46;20842;31
2022/08/26 11:58:24;;;;;;;10.93;3.20;;;32.10;91.10;;;;;;2603288;54;20033;31
2022/08/26 12:01:04;;;;;;;10.25;3.72;;;32.10;91.30;;;;;;2603448;54;20255;31
2022/08/26 12:03:41;;;;;;;9.60;3.95;;;32.10;92.50;;;;;;2603204;54;20799;31
2022/08/26 12:06:19;;;;;;;10.53;4.17;;;32.20;93.10;;;;;;2603221;54;20089;31
2022/08/26 12:08:56;;;;;;;5.28;3.05;;;32.20;92.60;;;;;;2603108;54;20081;31
2022/08/26 12:11:32;;;;;;;15.10;4.20;;;32.10;92.40;;;;;;2603342;54;20030;31
2022/08/26 12:14:17;;;;;;;8.87;3.90;;;32.10;93.50;;;;;;2603265;54;20030;31
2022/08/26 12:16:54;;;;;;;9.90;3.20;;;32.10;93.00;;;;;;2603179;54;20054;31
2022/08/26 12:19:33;;;;;;;8.93;3.15;;;32.10;92.80;;;;;;2603216;54;20030;31
2022/08/26 12:22:16;;;;;;;12.07;3.70;;;32.10;92.00;;;;;;2773285;31;21190;31
2022/08/26 12:24:57;;;;;;;10.10;3.40;;;32.00;91.10;;;;;;2603349;54;20037;31
2022/08/26 12:27:33;;;;;;;9.00;3.28;;;32.00;91.60;;;;;;2603437;54;20031;31
2022/08/26 12:30:15;;;;;;;10.77;3.63;;;32.00;92.70;;;;;;2603340;54;20026;31
2022/08/26 12:32:56;;;;;;;9.23;3.03;;;31.90;91.70;;;;;;2603401;54;20026;31
2022/08/26 12:35:33;;;;;;;9.38;3.53;;;31.80;92.90;;;;;;2602341;54;20919;31
2022/08/26 12:38:13;;;;;;;10.27;3.60;;;31.80;92.80;;;;;;2603159;54;20034;31
2022/08/26 12:40:49;;;;;;;11.98;3.22;;;31.80;90.50;;;;;;2603377;54;20815;31
2022/08/26 12:43:41;;;;;;;9.67;3.60;;;31.70;92.10;;;;;;2603403;54;20026;31
2022/08/26 12:46:30;;;;;;;7.07;3.40;;;31.70;92.00;;;;;;2603281;54;20122;31
2022/08/26 12:49:05;;;;;;;10.50;3.03;;;31.70;92.10;;;;;;2603154;54;20030;31
2022/08/26 12:51:43;;;;;;;6.93;2.92;;;31.70;92.20;;;;;;2621938;47;20234;31
2022/08/26 12:54:57;;;;;;;8.73;3.15;;;31.70;91.90;;;;;;2603373;54;20030;31
2022/08/26 12:57:17;;;;;;;8.73;4.18;;;31.70;93.00;;;;;;2621665;47;20108;31
2022/08/26 12:59:54;;;;;;;10.98;3.00;;;31.70;92.50;;;;;;2602463;54;20952;31
2022/08/26 13:02:40;;;;;;;11.20;4.53;;;31.70;91.70;;;;;;2602936;54;20083;31
2022/08/26 13:05:22;;;;;;;7.63;2.88;;;31.50;92.20;;;;;;2603052;54;20097;31
2022/08/26 13:08:13;;;;;;;11.57;3.88;;;31.60;92.40;;;;;;2603270;54;20852;31
2022/08/26 13:10:49;;;;;;;7.93;3.50;;;31.60;92.40;;;;;;2603189;54;20027;31
2022/08/26 13:13:25;;;;;;;8.00;3.20;;;31.50;92.30;;;;;;2603258;54;20902;31
2022/08/26 13:16:00;;;;;;;10.77;3.93;;;31.60;92.40;;;;;;2602404;54;20034;31
2022/08/26 13:18:42;;;;;;;10.93;3.40;;;31.50;91.90;;;;;;2602172;54;21023;31
2022/08/26 13:21:19;;;;;;;6.47;3.08;;;31.50;92.40;;;;;;2601982;54;20943;31
2022/08/26 13:23:54;;;;;;;10.10;3.40;;;31.50;92.60;;;;;;2603848;54;20022;31
2022/08/26 13:26:29;;;;;;;8.47;3.40;;;31.60;92.80;;;;;;2618998;46;20031;31
2022/08/26 13:29:05;;;;;;;8.70;3.47;;;31.60;93.40;;;;;;2603856;54;20246;31
2022/08/26 13:31:44;;;;;;;9.32;3.08;;;31.60;92.30;;;;;;2603925;54;20030;31
2022/08/26 13:34:22;;;;;;;6.88;3.28;;;31.60;93.20;;;;;;2617470;46;20303;31
2022/08/26 13:36:58;;;;;;;8.65;3.20;;;31.60;92.40;;;;;;2603867;54;20868;31
2022/08/26 13:39:32;;;;;;;10.55;3.40;;;31.60;93.00;;;;;;2702367;39;20480;31
2022/08/26 13:42:07;;;;;;;13.52;2.90;;;31.60;93.10;;;;;;2604079;54;20026;31
2022/08/26 13:44:43;;;;;;;10.57;3.50;;;31.50;92.60;;;;;;2603818;54;20050;31
2022/08/26 13:47:17;;;;;;;7.78;3.22;;;31.50;93.10;;;;;;2603790;54;20875;31
2022/08/26 13:49:58;;;;;;;9.07;3.40;;;31.50;92.60;;;;;;2603686;54;20053;31
2022/08/26 13:52:34;;;;;;;14.80;3.35;;;31.50;93.00;;;;;;2602851;54;20044;31
2022/08/26 13:55:12;;;;;;;10.45;3.55;;;31.50;92.30;;;;;;2602840;54;20026;31
2022/08/26 13:57:47;;;;;;;9.15;2.97;;;31.50;92.30;;;;;;2603909;54;20927;31
2022/08/26 14:00:22;;;;;;;5.40;3.10;;;31.40;92.40;;;;;;2603972;54;20863;31
2022/08/26 14:03:00;;;;;;;7.75;3.03;;;31.40;93.10;;;;;;2622166;46;20054;31
2022/08/26 14:05:39;;;;;;;8.32;3.50;;;31.40;93.30;;;;;;2603670;54;20891;31
2022/08/26 14:08:17;;;;;;;6.30;3.37;;;31.40;93.90;;;;;;2603748;54;20037;31
2022/08/26 14:10:51;;;;;;;9.98;3.72;;;31.40;93.00;;;;;;2603719;54;20121;31